createdAt,value
2019-01-21T00:00:34.227Z,33.73
2019-01-21T00:03:03.020Z,33.17
2019-01-21T00:05:31.657Z,30.27
2019-01-21T00:08:00.154Z,35.63
2019-01-21T00:10:28.624Z,30.47
2019-01-21T00:12:57.123Z,29.90
2019-01-21T00:15:25.762Z,35.37
2019-01-21T00:17:54.266Z,31.90
2019-01-21T00:20:22.744Z,38.17
2019-01-21T00:22:51.237Z,32.53
2019-01-21T00:25:19.710Z,31.77
2019-01-21T00:27:48.278Z,36.00
2019-01-21T00:30:16.821Z,39.33
2019-01-21T00:32:45.315Z,33.87
2019-01-21T00:35:13.796Z,33.13
2019-01-21T00:37:42.280Z,29.73
2019-01-21T00:40:13.570Z,29.30
2019-01-21T00:42:42.065Z,35.57
2019-01-21T00:45:10.806Z,35.60
2019-01-21T00:47:39.276Z,28.27
2019-01-21T00:50:10.377Z,30.10
2019-01-21T00:52:38.921Z,29.17
2019-01-21T00:55:09.554Z,26.40
2019-01-21T00:57:38.013Z,32.60
2019-01-21T01:00:18.656Z,33.40
2019-01-21T01:02:47.318Z,33.17
2019-01-21T01:05:18.209Z,34.00
2019-01-21T01:07:47.007Z,34.33
2019-01-21T01:10:15.676Z,34.37
2019-01-21T01:12:44.153Z,34.50
2019-01-21T01:15:14.375Z,34.73
2019-01-21T01:17:43.272Z,32.30
2019-01-21T01:20:17.049Z,36.03
2019-01-21T01:22:45.796Z,34.77
2019-01-21T01:25:14.368Z,32.13
2019-01-21T01:27:43.084Z,39.93
2019-01-21T01:30:14.510Z,36.10
2019-01-21T01:32:44.629Z,37.30
2019-01-21T01:35:15.365Z,36.07
2019-01-21T01:37:44.382Z,39.40
2019-01-21T01:40:15.385Z,29.13
2019-01-21T01:42:43.933Z,35.10
2019-01-21T01:45:15.471Z,38.50
2019-01-21T01:47:44.930Z,34.27
2019-01-21T01:50:13.661Z,41.50
2019-01-21T01:52:42.193Z,36.13
2019-01-21T01:55:11.229Z,39.43
2019-01-21T01:57:39.769Z,36.97
2019-01-21T02:00:11.561Z,39.63
2019-01-21T02:02:40.032Z,34.67
2019-01-21T02:05:08.867Z,42.33
2019-01-21T02:07:37.337Z,42.23
2019-01-21T02:10:08.759Z,35.67
2019-01-21T02:12:37.239Z,46.07
2019-01-21T02:15:12.197Z,36.60
2019-01-21T02:17:40.730Z,35.47
2019-01-21T02:20:14.973Z,43.47
2019-01-21T02:22:45.826Z,40.37
2019-01-21T02:25:14.870Z,41.93
2019-01-21T02:27:55.206Z,34.70
2019-01-21T02:30:32.397Z,38.60
2019-01-21T02:33:21.791Z,39.97
2019-01-21T02:35:53.343Z,40.30
2019-01-21T02:38:36.824Z,36.93
2019-01-21T02:41:08.733Z,36.43
2019-01-21T02:43:58.764Z,31.70
2019-01-21T02:46:39.296Z,37.77
2019-01-21T02:49:27.564Z,33.93
2019-01-21T02:52:04.657Z,39.57
2019-01-21T02:55:07.399Z,36.53
2019-01-21T02:57:53.521Z,34.23
2019-01-21T03:00:31.125Z,44.93
2019-01-21T03:03:14.623Z,44.57
2019-01-21T03:06:06.731Z,42.33
2019-01-21T03:08:44.253Z,33.87
2019-01-21T03:11:18.662Z,42.27
2019-01-21T03:13:50.201Z,33.57
2019-01-21T03:16:30.829Z,34.70
2019-01-21T03:19:11.358Z,29.13
2019-01-21T03:22:08.546Z,35.73
2019-01-21T03:24:49.140Z,33.73
2019-01-21T03:27:38.812Z,36.33
2019-01-21T03:30:26.798Z,29.03
2019-01-21T03:33:21.018Z,32.87
2019-01-21T03:36:04.384Z,38.40
2019-01-21T03:38:39.122Z,32.90
2019-01-21T03:41:16.501Z,39.17
2019-01-21T03:43:48.019Z,33.27
2019-01-21T03:46:34.748Z,35.80
2019-01-21T03:49:09.526Z,32.13
2019-01-21T03:51:53.300Z,32.87
2019-01-21T03:54:23.524Z,36.67
2019-01-21T03:56:55.067Z,38.30
2019-01-21T03:59:32.604Z,34.30
2019-01-21T04:02:06.952Z,37.47
2019-01-21T04:04:53.717Z,36.10
2019-01-21T04:07:28.112Z,38.10
2019-01-21T04:10:34.607Z,38.47
2019-01-21T04:13:09.084Z,32.40
2019-01-21T04:15:55.485Z,35.93
2019-01-21T04:18:35.879Z,36.93
2019-01-21T04:21:16.410Z,33.63
2019-01-21T04:23:50.363Z,32.07
2019-01-21T04:26:24.379Z,35.30
2019-01-21T04:29:04.413Z,42.63
2019-01-21T04:31:47.777Z,34.23
2019-01-21T04:34:28.034Z,30.17
2019-01-21T04:37:16.138Z,37.30
2019-01-21T04:39:55.933Z,38.43
2019-01-21T04:42:39.503Z,38.60
2019-01-21T04:45:16.787Z,31.67
2019-01-21T04:47:54.375Z,35.03
2019-01-21T04:50:25.927Z,34.80
2019-01-21T04:53:00.009Z,31.47
2019-01-21T04:55:46.679Z,33.40
2019-01-21T04:58:20.873Z,36.13
2019-01-21T05:01:15.119Z,40.17
2019-01-21T05:04:09.403Z,35.93
2019-01-21T05:06:58.638Z,37.60
2019-01-21T05:09:51.288Z,38.40
2019-01-21T05:12:28.480Z,35.10
2019-01-21T05:15:16.572Z,39.30
2019-01-21T05:18:09.229Z,35.80
2019-01-21T05:20:56.936Z,32.60
2019-01-21T05:23:43.233Z,36.57
2019-01-21T05:26:20.243Z,35.83
2019-01-21T05:29:19.131Z,40.50
2019-01-21T05:32:02.821Z,35.47
2019-01-21T05:34:57.334Z,34.90
2019-01-21T05:37:28.876Z,43.10
2019-01-21T05:40:16.943Z,39.47
2019-01-21T05:43:00.111Z,43.53
2019-01-21T05:45:43.459Z,40.30
2019-01-21T05:48:31.643Z,41.30
2019-01-21T05:51:19.524Z,43.77
2019-01-21T05:53:53.614Z,40.83
2019-01-21T05:56:34.172Z,40.90
2019-01-21T05:59:26.901Z,42.77
2019-01-21T06:02:16.445Z,43.07
2019-01-21T06:05:04.241Z,37.03
2019-01-21T06:07:44.392Z,41.13
2019-01-21T06:10:18.521Z,34.47
2019-01-21T06:13:09.552Z,36.57
2019-01-21T06:15:41.066Z,42.00
2019-01-21T06:18:15.467Z,41.97
2019-01-21T06:20:49.978Z,40.03
2019-01-21T06:23:36.351Z,39.27
2019-01-21T06:26:13.809Z,33.60
2019-01-21T06:29:16.971Z,47.87
2019-01-21T06:31:54.407Z,44.10
2019-01-21T06:34:40.898Z,34.40
2019-01-21T06:37:18.608Z,43.20
2019-01-21T06:40:06.799Z,39.07
2019-01-21T06:42:53.207Z,36.20
2019-01-21T06:45:36.064Z,47.97
2019-01-21T06:48:13.859Z,36.07
2019-01-21T06:51:11.012Z,43.13
2019-01-21T06:54:03.425Z,42.50
2019-01-21T06:56:47.313Z,45.80
2019-01-21T06:59:30.631Z,45.47
2019-01-21T07:02:05.064Z,49.90
2019-01-21T07:05:13.162Z,41.77
2019-01-21T07:08:15.888Z,51.00
2019-01-21T07:10:53.580Z,41.70
2019-01-21T07:13:59.949Z,45.90
2019-01-21T07:16:46.456Z,43.07
2019-01-21T07:19:39.112Z,45.17
2019-01-21T07:22:10.627Z,48.30
2019-01-21T07:24:47.870Z,41.97
2019-01-21T07:27:25.299Z,42.30
2019-01-21T07:30:13.304Z,41.77
2019-01-21T07:32:47.456Z,42.83
2019-01-21T07:35:24.747Z,44.00
2019-01-21T07:38:04.594Z,32.07
2019-01-21T07:40:47.989Z,40.03
2019-01-21T07:43:22.159Z,36.67
2019-01-21T07:46:02.266Z,39.10
2019-01-21T07:49:08.901Z,34.27
2019-01-21T07:52:09.458Z,38.60
2019-01-21T07:54:55.889Z,40.87
2019-01-21T07:57:27.431Z,36.37
2019-01-21T08:00:10.763Z,34.33
2019-01-21T08:02:42.309Z,35.67
2019-01-21T08:05:42.540Z,43.00
2019-01-21T08:08:20.068Z,47.37
2019-01-21T08:10:51.595Z,40.97
2019-01-21T08:13:39.525Z,40.33
2019-01-21T08:16:33.711Z,43.00
2019-01-21T08:19:24.302Z,37.83
2019-01-21T08:22:05.519Z,39.27
2019-01-21T08:24:48.867Z,42.60
2019-01-21T08:27:35.199Z,40.23
2019-01-21T08:30:06.723Z,41.23
2019-01-21T08:32:38.261Z,43.23
2019-01-21T08:35:15.788Z,46.63
2019-01-21T08:38:03.789Z,40.57
2019-01-21T08:40:51.961Z,43.93
2019-01-21T08:43:41.303Z,46.47
2019-01-21T08:46:32.188Z,39.50
2019-01-21T08:49:15.641Z,41.03
2019-01-21T08:51:47.159Z,39.20
2019-01-21T08:54:30.806Z,42.93
2019-01-21T08:57:05.461Z,49.70
2019-01-21T08:59:46.223Z,49.57
2019-01-21T09:02:26.649Z,47.80
2019-01-21T09:05:06.723Z,47.20
2019-01-21T09:07:49.829Z,46.20
2019-01-21T09:10:23.828Z,41.67
2019-01-21T09:12:58.435Z,44.03
2019-01-21T09:15:32.927Z,39.93
2019-01-21T09:18:10.132Z,39.20
2019-01-21T09:20:44.507Z,38.57
2019-01-21T09:23:37.493Z,47.47
2019-01-21T09:26:44.147Z,45.20
2019-01-21T09:29:24.423Z,39.37
2019-01-21T09:32:14.411Z,48.00
2019-01-21T09:34:51.439Z,40.53
2019-01-21T09:37:31.924Z,40.40
2019-01-21T09:40:21.530Z,44.73
2019-01-21T09:43:09.672Z,49.33
2019-01-21T09:45:47.095Z,39.70
2019-01-21T09:48:14.420Z,44.20
2019-01-21T09:50:45.047Z,45.83
2019-01-21T09:53:13.889Z,44.03
2019-01-21T09:55:45.567Z,52.20
2019-01-21T09:58:14.047Z,55.33
2019-01-21T10:00:42.694Z,45.53
2019-01-21T10:03:12.921Z,45.77
2019-01-21T10:05:44.797Z,48.43
2019-01-21T10:08:19.097Z,47.33
2019-01-21T10:11:07.259Z,47.67
2019-01-21T10:13:44.860Z,50.50
2019-01-21T10:16:31.491Z,52.33
2019-01-21T10:19:14.787Z,54.13
2019-01-21T10:22:05.895Z,48.20
2019-01-21T10:24:37.410Z,46.37
2019-01-21T10:27:55.402Z,51.27
2019-01-21T10:30:41.936Z,47.70
2019-01-21T10:33:46.274Z,49.17
2019-01-21T10:36:26.517Z,44.93
2019-01-21T10:38:58.059Z,53.53
2019-01-21T10:41:41.724Z,43.80
2019-01-21T10:44:13.275Z,48.10
2019-01-21T10:46:50.405Z,53.03
2019-01-21T10:49:30.725Z,42.97
2019-01-21T10:52:31.060Z,53.37
2019-01-21T10:55:26.697Z,51.13
2019-01-21T10:58:04.131Z,45.80
2019-01-21T11:00:50.305Z,51.27
2019-01-21T11:03:28.058Z,47.00
2019-01-21T11:06:02.112Z,48.70
2019-01-21T11:08:42.687Z,48.23
2019-01-21T11:11:28.769Z,50.33
2019-01-21T11:14:05.880Z,48.23
2019-01-21T11:16:46.444Z,51.50
2019-01-21T11:19:34.591Z,40.40
2019-01-21T11:22:06.697Z,47.53
2019-01-21T11:25:00.410Z,51.33
2019-01-21T11:27:31.935Z,45.37
2019-01-21T11:30:21.846Z,48.93
2019-01-21T11:33:09.672Z,57.53
2019-01-21T11:36:09.994Z,49.77
2019-01-21T11:38:47.286Z,52.63
2019-01-21T11:41:30.208Z,48.47
2019-01-21T11:44:13.012Z,45.03
2019-01-21T11:47:02.306Z,47.17
2019-01-21T11:49:45.854Z,42.30
2019-01-21T11:52:23.662Z,46.90
2019-01-21T11:55:23.932Z,39.33
2019-01-21T11:58:07.430Z,46.77
2019-01-21T12:00:58.775Z,44.57
2019-01-21T12:03:33.115Z,47.73
2019-01-21T12:06:02.649Z,40.40
2019-01-21T12:08:46.132Z,46.73
2019-01-21T12:11:34.234Z,37.53
2019-01-21T12:14:05.759Z,34.57
2019-01-21T12:16:55.225Z,43.03
2019-01-21T12:19:41.831Z,42.10
2019-01-21T12:22:25.439Z,38.20
2019-01-21T12:24:56.952Z,42.77
2019-01-21T12:27:28.495Z,35.47
2019-01-21T12:30:08.846Z,40.40
2019-01-21T12:33:02.987Z,41.27
2019-01-21T12:35:46.186Z,43.30
2019-01-21T12:38:29.543Z,41.90
2019-01-21T12:41:12.941Z,37.03
2019-01-21T12:43:56.244Z,37.47
2019-01-21T12:46:42.953Z,40.40
2019-01-21T12:49:17.095Z,36.23
2019-01-21T12:51:51.150Z,43.97
2019-01-21T12:54:22.663Z,42.37
2019-01-21T12:57:09.345Z,46.90
2019-01-21T12:59:44.740Z,42.60
2019-01-21T13:02:16.103Z,33.50
2019-01-21T13:04:50.194Z,42.30
2019-01-21T13:07:45.621Z,36.27
2019-01-21T13:10:22.778Z,45.40
2019-01-21T13:12:54.336Z,46.03
2019-01-21T13:15:40.967Z,43.67
2019-01-21T13:18:21.057Z,50.53
2019-01-21T13:20:55.550Z,49.60
2019-01-21T13:23:27.102Z,42.83
2019-01-21T13:25:58.608Z,47.30
2019-01-21T13:28:38.909Z,48.50
2019-01-21T13:31:29.395Z,46.10
2019-01-21T13:34:17.446Z,39.20
2019-01-21T13:36:54.493Z,41.40
2019-01-21T13:39:49.391Z,48.27
2019-01-21T13:42:21.314Z,47.23
2019-01-21T13:45:18.318Z,42.07
2019-01-21T13:47:59.167Z,44.37
2019-01-21T13:50:37.255Z,48.17
2019-01-21T13:53:33.249Z,50.20
2019-01-21T13:56:25.407Z,45.50
2019-01-21T13:59:11.361Z,43.03
2019-01-21T14:01:42.884Z,50.03
2019-01-21T14:04:26.470Z,43.93
2019-01-21T14:07:22.392Z,47.80
2019-01-21T14:10:13.778Z,50.00
2019-01-21T14:12:48.196Z,46.43
2019-01-21T14:15:44.397Z,42.50
2019-01-21T14:18:25.030Z,41.60
2019-01-21T14:21:11.590Z,40.70
2019-01-21T14:23:58.276Z,43.93
2019-01-21T14:26:38.977Z,41.33
2019-01-21T14:29:13.197Z,40.60
2019-01-21T14:32:08.599Z,38.13
2019-01-21T14:34:40.153Z,40.60
2019-01-21T14:37:23.845Z,42.73
2019-01-21T14:39:58.219Z,41.63
2019-01-21T14:42:44.865Z,43.87
2019-01-21T14:45:22.456Z,36.43
2019-01-21T14:47:56.505Z,39.23
2019-01-21T14:50:58.804Z,38.90
2019-01-21T14:53:48.310Z,41.50
2019-01-21T14:56:28.441Z,31.87
2019-01-21T14:59:21.095Z,41.13
2019-01-21T15:02:08.917Z,36.43
2019-01-21T15:05:04.073Z,38.37
2019-01-21T15:07:35.621Z,36.67
2019-01-21T15:10:29.855Z,35.67
2019-01-21T15:13:07.171Z,39.20
2019-01-21T15:15:44.607Z,36.17
2019-01-21T15:18:19.337Z,37.77
2019-01-21T15:20:57.748Z,34.40
2019-01-21T15:23:56.600Z,40.17
2019-01-21T15:26:33.825Z,40.10
2019-01-21T15:29:22.784Z,38.87
2019-01-21T15:31:54.444Z,39.43
2019-01-21T15:34:42.989Z,43.90
2019-01-21T15:37:49.898Z,45.97
2019-01-21T15:40:39.449Z,40.37
2019-01-21T15:43:11.103Z,43.50
2019-01-21T15:45:49.897Z,38.97
2019-01-21T15:48:18.634Z,43.47
2019-01-21T15:50:56.147Z,39.83
2019-01-21T15:53:42.655Z,43.33
2019-01-21T15:56:20.126Z,47.47
2019-01-21T15:59:06.591Z,45.93
2019-01-21T16:01:47.041Z,50.33
2019-01-21T16:04:24.372Z,39.10
2019-01-21T16:07:11.036Z,52.10
2019-01-21T16:10:00.668Z,48.40
2019-01-21T16:12:52.386Z,43.33
2019-01-21T16:15:39.913Z,46.33
2019-01-21T16:18:17.027Z,44.50
2019-01-21T16:20:54.184Z,49.00
2019-01-21T16:23:52.534Z,46.50
2019-01-21T16:26:21.943Z,43.97
2019-01-21T16:28:59.128Z,53.53
2019-01-21T16:31:29.925Z,48.60
2019-01-21T16:34:07.588Z,41.50
2019-01-21T16:36:54.331Z,52.33
2019-01-21T16:39:34.782Z,52.33
2019-01-21T16:42:14.529Z,48.30
2019-01-21T16:44:45.786Z,54.33
2019-01-21T16:47:14.496Z,53.20
2019-01-21T16:49:42.993Z,56.03
2019-01-21T16:52:11.455Z,55.30
2019-01-21T16:54:39.937Z,49.67
2019-01-21T16:57:08.410Z,49.50
2019-01-21T16:59:36.946Z,55.00
2019-01-21T17:02:05.456Z,53.47
2019-01-21T17:04:34.085Z,54.30
2019-01-21T17:07:02.737Z,60.03
2019-01-21T17:09:31.228Z,43.97
2019-01-21T17:11:59.713Z,54.13
2019-01-21T17:14:28.268Z,61.13
2019-01-21T17:16:56.733Z,53.23
2019-01-21T17:19:25.229Z,47.83
2019-01-21T17:21:53.703Z,52.03
2019-01-21T17:24:22.199Z,62.13
2019-01-21T17:26:50.737Z,58.23
2019-01-21T17:29:20.749Z,59.23
2019-01-21T17:31:49.226Z,59.33
2019-01-21T17:34:17.681Z,64.83
2019-01-21T17:36:46.175Z,52.53
2019-01-21T17:39:14.644Z,65.17
2019-01-21T17:41:43.206Z,58.37
2019-01-21T17:44:11.669Z,60.23
2019-01-21T17:46:40.167Z,52.27
2019-01-21T17:49:08.632Z,56.27
2019-01-21T17:51:37.143Z,58.20
2019-01-21T17:54:05.792Z,52.70
2019-01-21T17:56:34.282Z,61.67
2019-01-21T17:59:02.783Z,58.53
2019-01-21T18:01:31.241Z,59.67
2019-01-21T18:03:59.782Z,52.77
2019-01-21T18:06:28.285Z,62.60
2019-01-21T18:08:56.758Z,52.83
2019-01-21T18:11:25.248Z,60.73
2019-01-21T18:13:53.720Z,71.03
2019-01-21T18:16:22.223Z,63.10
2019-01-21T18:18:50.686Z,59.33
2019-01-21T18:21:20.753Z,60.60
2019-01-21T18:23:49.228Z,64.33
2019-01-21T18:26:17.721Z,70.67
2019-01-21T18:28:46.192Z,74.10
2019-01-21T18:31:14.682Z,55.63
2019-01-21T18:33:43.163Z,59.63
2019-01-21T18:36:11.664Z,56.27
2019-01-21T18:38:40.195Z,66.40
2019-01-21T18:41:09.432Z,68.23
2019-01-21T18:43:37.968Z,65.87
2019-01-21T18:46:06.624Z,58.70
2019-01-21T18:48:35.263Z,66.10
2019-01-21T18:51:10.787Z,65.87
2019-01-21T18:53:39.840Z,65.07
2019-01-21T18:56:09.395Z,67.03
2019-01-21T18:58:40.293Z,59.93
2019-01-21T19:01:09.623Z,66.73
2019-01-21T19:03:40.403Z,67.83
2019-01-21T19:06:09.837Z,66.10
2019-01-21T19:08:38.901Z,65.80
2019-01-21T19:11:07.934Z,62.33
2019-01-21T19:13:36.518Z,62.20
2019-01-21T19:16:05.288Z,59.70
2019-01-21T19:18:33.754Z,61.17
2019-01-21T19:21:02.252Z,65.37
2019-01-21T19:23:30.715Z,61.20
2019-01-21T19:26:01.500Z,62.17
2019-01-21T19:28:29.958Z,73.80
2019-01-21T19:30:58.464Z,68.77
2019-01-21T19:33:26.933Z,67.37
2019-01-21T19:35:55.392Z,65.10
2019-01-21T19:38:24.082Z,67.07
2019-01-21T19:40:52.371Z,72.10
2019-01-21T19:43:20.925Z,67.13
2019-01-21T19:45:49.409Z,65.63
2019-01-21T19:48:18.100Z,72.83
2019-01-21T19:50:46.580Z,61.53
2019-01-21T19:53:15.085Z,75.43
2019-01-21T19:55:45.196Z,74.03
2019-01-21T19:58:13.836Z,62.10
2019-01-21T20:00:42.575Z,65.13
2019-01-21T20:03:11.068Z,67.80
2019-01-21T20:05:39.542Z,63.40
2019-01-21T20:08:08.041Z,71.50
2019-01-21T20:10:36.579Z,67.53
2019-01-21T20:13:05.248Z,57.77
2019-01-21T20:15:33.728Z,73.37
2019-01-21T20:18:02.240Z,77.37
2019-01-21T20:20:36.265Z,71.63
2019-01-21T20:23:05.587Z,69.30
2019-01-21T20:25:34.046Z,73.07
2019-01-21T20:28:02.539Z,67.70
2019-01-21T20:30:31.011Z,86.07
2019-01-21T20:32:59.512Z,59.77
2019-01-21T20:35:27.972Z,70.33
2019-01-21T20:37:56.478Z,70.57
2019-01-21T20:40:27.557Z,63.07
2019-01-21T20:42:56.115Z,70.17
2019-01-21T20:45:26.200Z,72.83
2019-01-21T20:47:54.691Z,65.47
2019-01-21T20:50:31.443Z,72.53
2019-01-21T20:52:59.935Z,62.20
2019-01-21T20:55:28.550Z,65.93
2019-01-21T20:57:57.039Z,76.37
2019-01-21T21:00:30.641Z,73.90
2019-01-21T21:02:59.387Z,69.27
2019-01-21T21:05:27.963Z,65.73
2019-01-21T21:07:56.516Z,83.37
2019-01-21T21:10:25.150Z,72.70
2019-01-21T21:12:53.634Z,66.70
2019-01-21T21:15:24.982Z,71.30
2019-01-21T21:17:53.494Z,70.83
2019-01-21T21:20:21.963Z,80.23
2019-01-21T21:22:50.467Z,67.00
2019-01-21T21:25:19.862Z,70.27
2019-01-21T21:27:48.622Z,71.73
2019-01-21T21:30:20.134Z,76.97
2019-01-21T21:32:48.623Z,76.63
2019-01-21T21:35:17.107Z,75.20
2019-01-21T21:37:45.609Z,72.90
2019-01-21T21:40:16.760Z,62.30
2019-01-21T21:42:45.431Z,65.40
2019-01-21T21:45:16.036Z,74.90
2019-01-21T21:47:44.561Z,64.70
2019-01-21T21:50:25.086Z,69.97
2019-01-21T21:52:53.583Z,73.00
2019-01-21T21:55:22.045Z,73.67
2019-01-21T21:57:50.550Z,69.60
2019-01-21T22:00:23.350Z,77.07
2019-01-21T22:02:51.916Z,72.50
2019-01-21T22:05:20.953Z,76.77
2019-01-21T22:07:49.440Z,68.20
2019-01-21T22:10:23.505Z,75.63
2019-01-21T22:12:52.275Z,71.50
2019-01-21T22:15:22.590Z,67.97
2019-01-21T22:17:51.252Z,81.33
2019-01-21T22:20:24.442Z,70.57
2019-01-21T22:22:53.297Z,68.80
2019-01-21T22:25:21.767Z,74.03
2019-01-21T22:27:50.233Z,71.97
2019-01-21T22:30:21.160Z,74.03
2019-01-21T22:32:49.641Z,64.37
2019-01-21T22:35:18.136Z,77.60
2019-01-21T22:37:46.988Z,70.00
2019-01-21T22:40:22.149Z,73.27
2019-01-21T22:42:50.983Z,68.43
2019-01-21T22:45:20.481Z,60.93
2019-01-21T22:47:49.231Z,71.17
2019-01-21T22:50:19.705Z,71.73
2019-01-21T22:52:48.199Z,79.10
2019-01-21T22:55:17.424Z,71.97
2019-01-21T22:57:45.960Z,73.97
2019-01-21T23:00:20.372Z,75.63
2019-01-21T23:02:48.859Z,66.73
2019-01-21T23:05:17.725Z,71.00
2019-01-21T23:07:46.208Z,73.57
2019-01-21T23:10:14.775Z,66.40
2019-01-21T23:12:43.245Z,81.00
2019-01-21T23:15:12.300Z,77.67
2019-01-21T23:17:42.350Z,79.10
2019-01-21T23:20:11.588Z,69.30
2019-01-21T23:22:40.070Z,73.10
2019-01-21T23:25:09.095Z,71.30
2019-01-21T23:27:37.847Z,76.80
2019-01-21T23:30:12.471Z,73.83
2019-01-21T23:32:40.928Z,71.40
2019-01-21T23:35:09.431Z,62.57
2019-01-21T23:37:37.917Z,68.57
2019-01-21T23:40:09.817Z,66.20
2019-01-21T23:42:38.293Z,77.30
2019-01-21T23:45:11.793Z,73.03
2019-01-21T23:47:40.277Z,67.07
2019-01-21T23:50:11.610Z,69.90
2019-01-21T23:52:40.460Z,62.47
2019-01-21T23:55:10.918Z,77.80
2019-01-21T23:57:39.383Z,69.27
